»·PEaware :: N171MA KGJT-KASE

N171MA :: KGJT-KASE

FLIGHT INFORMATION

Flight Status: Arrived
Operator: Privately registered:
United States
More flights under this callsign
Pilot: Tim M. (868)
Aircraft: CIRRUS SR-22
(SR22)
More flights by this aircraft type
Origin: KGJT Grand Junction Regl
United States
Destination: KASE Aspen-Pitkin Co/Sardy
United States
More flights between these airports :: More routes between these airports
Route: +JNC7 PACES V134 DBL
File this flight plan on PilotEdge
Remarks:
Altitude:
(Current/Filed)
15,000ft
Speed:
(Current/Filed)
177kts
Departed: 28-Jul-20 10:11 AM
Arrived: 28-Jul-20 10:52 AM
Distance/Time
Traveled:
77nm/0:41
Distance/Time
To Go:
Arrived

Flight Plot

Page will automatically refresh every two minutes.

Flight plan parsing failed; only flown route is shown


Map Options




Map Legend


Flown Route
Filed Route
Departure Airport
Arrival Airport
Navaid (VOR, NDB)
Fix

Horizontal Profiles

Position Reports

Time Latitude Longitude Heading Altitude Ground
Speed
28-Jul-20 09:42 39.120889 -108.522549 124 4805ft 0kts
28-Jul-20 09:43 39.120889 -108.522549 124 4805ft 0kts
28-Jul-20 09:44 39.120889 -108.522549 124 4805ft 0kts
28-Jul-20 09:45 39.120889 -108.522549 124 4805ft 0kts
28-Jul-20 09:46 39.120889 -108.522549 124 4805ft 0kts
28-Jul-20 09:47 39.120889 -108.522549 124 4805ft 0kts
28-Jul-20 09:48 39.120889 -108.522549 124 4805ft 0kts
28-Jul-20 09:49 39.120889 -108.522549 124 4805ft 0kts
28-Jul-20 09:50 39.120889 -108.522549 124 4805ft 0kts
28-Jul-20 09:51 39.120889 -108.522549 124 4805ft 0kts
28-Jul-20 09:52 39.120889 -108.522549 124 4805ft 0kts
28-Jul-20 09:53 39.120889 -108.522549 124 4805ft 0kts
28-Jul-20 09:54 39.120889 -108.522549 124 4805ft 0kts
28-Jul-20 09:55 39.120889 -108.522549 124 4805ft 0kts
28-Jul-20 09:56 39.120889 -108.522549 124 4805ft 0kts
28-Jul-20 09:57 39.120889 -108.522549 124 4805ft 0kts
28-Jul-20 09:58 39.120887 -108.522547 123 4805ft 0kts
28-Jul-20 09:59 39.120726 -108.520833 123 4805ft 14kts
28-Jul-20 10:00 39.118294 -108.516424 129 4805ft 0kts
28-Jul-20 10:01 39.118294 -108.516424 129 4805ft 0kts
28-Jul-20 10:02 39.118294 -108.516424 129 4805ft 0kts
28-Jul-20 10:03 39.118294 -108.516424 129 4805ft 0kts
28-Jul-20 10:04 39.118294 -108.516424 129 4805ft 0kts
28-Jul-20 10:05 39.118294 -108.516424 129 4805ft 0kts
28-Jul-20 10:06 39.118294 -108.516424 129 4805ft 0kts
28-Jul-20 10:07 39.118294 -108.516424 129 4805ft 0kts
28-Jul-20 10:08 39.118294 -108.516424 129 4805ft 0kts
28-Jul-20 10:09 39.119118 -108.515325 299 4805ft 37kts
28-Jul-20 10:10 39.134659 -108.547382 299 5193ft 141kts
28-Jul-20 10:11 39.155351 -108.591467 301 5949ft 144kts
28-Jul-20 10:12 39.144309 -108.636631 232 6726ft 148kts
28-Jul-20 10:13 39.121817 -108.677821 233 7804ft 138kts
28-Jul-20 10:14 39.100427 -108.717156 234 8814ft 135kts
28-Jul-20 10:15 39.078818 -108.757087 235 9765ft 136kts
28-Jul-20 10:16 39.051145 -108.783438 153 10716ft 149kts
28-Jul-20 10:17 39.058954 -108.739178 40 11602ft 155kts
28-Jul-20 10:18 39.080589 -108.690745 70 12515ft 162kts
28-Jul-20 10:19 39.092584 -108.634323 72 13427ft 165kts
28-Jul-20 10:20 39.104578 -108.576553 72 14335ft 169kts
28-Jul-20 10:21 39.117313 -108.515071 72 14831ft 199kts
28-Jul-20 10:22 39.132402 -108.441795 73 14811ft 214kts
28-Jul-20 10:23 39.147374 -108.368944 73 14808ft 208kts
28-Jul-20 10:24 39.162209 -108.296529 74 14806ft 208kts
28-Jul-20 10:25 39.176955 -108.224292 74 14809ft 208kts
28-Jul-20 10:26 39.191595 -108.152315 73 14842ft 207kts
28-Jul-20 10:27 39.206162 -108.080479 74 14875ft 207kts
28-Jul-20 10:29 39.220722 -108.008370 74 14909ft 208kts
28-Jul-20 10:30 39.235262 -107.936162 74 14916ft 208kts
28-Jul-20 10:31 39.249762 -107.863913 74 14917ft 208kts
28-Jul-20 10:32 39.264193 -107.791719 74 14917ft 208kts
28-Jul-20 10:33 39.278586 -107.719487 74 14918ft 208kts
28-Jul-20 10:34 39.292990 -107.647052 74 14917ft 208kts
28-Jul-20 10:35 39.307364 -107.574420 74 14919ft 208kts
28-Jul-20 10:36 39.321655 -107.501907 74 14918ft 206kts
28-Jul-20 10:37 39.335570 -107.431059 74 14917ft 202kts
28-Jul-20 10:38 39.349320 -107.360804 74 14919ft 201kts
28-Jul-20 10:39 39.362987 -107.290745 75 14915ft 200kts
28-Jul-20 10:40 39.376550 -107.220971 75 14916ft 200kts
28-Jul-20 10:41 39.399043 -107.156684 49 14920ft 199kts
28-Jul-20 10:42 39.433381 -107.100591 49 14917ft 198kts
28-Jul-20 10:42 39.462065 -107.053887 49 14916ft 199kts
28-Jul-20 10:44 39.442504 -106.986417 129 14110ft 166kts
28-Jul-20 10:45 39.412762 -106.959966 171 13452ft 122kts
28-Jul-20 10:45 39.387763 -106.948277 156 13009ft 116kts
28-Jul-20 10:47 39.350770 -106.929544 163 12300ft 114kts
28-Jul-20 10:47 39.326494 -106.918286 166 11319ft 112kts
28-Jul-20 10:48 39.297474 -106.904518 156 9999ft 113kts
28-Jul-20 10:50 39.265434 -106.889164 160 8702ft 92kts
28-Jul-20 10:50 39.246239 -106.879935 159 8183ft 86kts
28-Jul-20 10:51 39.225700 -106.870149 160 7837ft 25kts
28-Jul-20 10:52 39.224136 -106.868073 21 7837ft 7kts
28-Jul-20 10:53 39.224259 -106.867751 157 7837ft 0kts
28-Jul-20 10:54 39.224259 -106.867751 157 7837ft 0kts
28-Jul-20 10:55 39.224259 -106.867751 157 7837ft 0kts
28-Jul-20 10:56 39.224259 -106.867751 157 7837ft 0kts

Navigation Log

Ident Type
Flight plan parsing failed, navigation log unavailable